Terminal Aerodrome Forecast
Issued by NWS Duluth, MN

Home | Current Version | Previous Version | Text Only | Print | Product List | Glossary On
Versions: 1 2 3 4 5 6 7 8 9 10 11 12 13 14 15 16 17
000
FTUS43 KDLH 062100 AAB
TAFDLH
TAF AMD
KDLH 062103Z 0621/0718 09013KT P6SM SCT010 BKN200
     FM070300 10009KT P6SM -SHRA BKN035 WS015/18040KT
     FM070600 12009KT 2SM -DZ BR VCSH OVC007 WS015/18040KT
     FM071600 12008KT 4SM BR SCT007 OVC010=

USA.gov is the U.S. government's official web portal to all federal, state and local government web resources and services.